createdAt,value
2019-02-28T00:00:26.613Z,45.49
2019-02-28T00:01:07.160Z,45.01
2019-02-28T00:01:47.756Z,45.59
2019-02-28T00:02:28.338Z,45.68
2019-02-28T00:03:08.898Z,46.15
2019-02-28T00:03:49.462Z,46.25
2019-02-28T00:04:32.728Z,45.49
2019-02-28T00:05:10.670Z,45.49
2019-02-28T00:05:51.264Z,45.68
2019-02-28T00:06:31.819Z,45.97
2019-02-28T00:07:12.414Z,46.06
2019-02-28T00:07:53.019Z,45.97
2019-02-28T00:08:33.580Z,45.78
2019-02-28T00:09:14.134Z,46.06
2019-02-28T00:09:57.323Z,46.15
2019-02-28T00:10:35.284Z,46.15
2019-02-28T00:11:15.872Z,46.35
2019-02-28T00:11:56.426Z,46.06
2019-02-28T00:12:36.989Z,46.15
2019-02-28T00:13:21.103Z,46.44
2019-02-28T00:13:58.156Z,46.06
2019-02-28T00:14:38.707Z,46.35
2019-02-28T00:15:19.282Z,46.44
2019-02-28T00:16:00.154Z,46.54
2019-02-28T00:16:40.458Z,46.63
2019-02-28T00:17:21.036Z,46.44
2019-02-28T00:18:03.501Z,46.63
2019-02-28T00:18:42.190Z,46.63
2019-02-28T00:19:23.930Z,47.3
2019-02-28T00:20:03.336Z,47.11
2019-02-28T00:20:43.916Z,46.63
2019-02-28T00:21:24.505Z,46.63
2019-02-28T00:22:05.051Z,46.92
2019-02-28T00:22:48.043Z,46.63
2019-02-28T00:23:26.175Z,46.73
2019-02-28T00:24:06.744Z,47.02
2019-02-28T00:24:47.334Z,47.3
2019-02-28T00:25:27.890Z,47.02
2019-02-28T00:26:11.209Z,47.3
2019-02-28T00:26:49.090Z,47.11
2019-02-28T00:27:29.649Z,47.3
2019-02-28T00:28:10.224Z,47.2
2019-02-28T00:28:50.779Z,47.11
2019-02-28T00:29:33.682Z,47.2
2019-02-28T00:30:11.969Z,47.2
2019-02-28T00:30:52.508Z,46.92
2019-02-28T00:31:33.077Z,47.02
2019-02-28T00:32:13.620Z,47.37
2019-02-28T00:32:56.297Z,47.94
2019-02-28T00:33:34.767Z,47.56
2019-02-28T00:34:15.331Z,47.75
2019-02-28T00:34:55.888Z,47.97
2019-02-28T00:35:36.500Z,47.68
2019-02-28T00:36:19.147Z,47.66
2019-02-28T00:36:57.611Z,47.66
2019-02-28T00:37:38.217Z,47.56
2019-02-28T00:38:18.786Z,48.03
2019-02-28T00:38:59.911Z,47.85
2019-02-28T00:39:39.913Z,48.03
2019-02-28T00:40:20.497Z,47.94
2019-02-28T00:41:01.081Z,47.75
2019-02-28T00:41:44.180Z,47.94
2019-02-28T00:42:22.237Z,47.75
2019-02-28T00:43:02.803Z,47.85
2019-02-28T00:43:43.422Z,47.75
2019-02-28T00:44:23.991Z,48.13
2019-02-28T00:45:04.565Z,48.61
2019-02-28T00:45:45.141Z,48.51
2019-02-28T00:46:25.705Z,48.42
2019-02-28T00:47:06.293Z,48.23
2019-02-28T00:47:47.430Z,48.61
2019-02-28T00:48:27.445Z,48.71
2019-02-28T00:49:07.993Z,48.71
2019-02-28T00:49:48.599Z,48.99
2019-02-28T00:50:29.172Z,48.8
2019-02-28T00:51:09.795Z,48.8
2019-02-28T00:51:50.419Z,48.8
2019-02-28T00:52:32.041Z,48.71
2019-02-28T00:53:11.580Z,48.9
2019-02-28T00:53:52.144Z,48.9
2019-02-28T00:54:32.710Z,48.9
2019-02-28T00:55:14.429Z,49.08
2019-02-28T00:55:53.853Z,49.08
2019-02-28T00:56:34.475Z,49.27
2019-02-28T00:57:15.043Z,48.99
2019-02-28T00:57:56.034Z,48.8
2019-02-28T00:58:36.177Z,48.9
2019-02-28T00:59:16.752Z,48.8
2019-02-28T00:59:57.331Z,48.8
2019-02-28T01:00:38.150Z,49.08
2019-02-28T01:01:18.467Z,49.08
2019-02-28T01:01:59.050Z,48.99
2019-02-28T01:02:39.625Z,49.08
2019-02-28T01:03:20.177Z,49.37
2019-02-28T01:04:00.741Z,49.18
2019-02-28T01:04:41.336Z,49.46
2019-02-28T01:05:21.906Z,49.37
2019-02-28T01:06:02.554Z,49.46
2019-02-28T01:06:43.155Z,49.56
2019-02-28T01:07:23.764Z,49.37
2019-02-28T01:08:04.386Z,49.65
2019-02-28T01:08:44.929Z,49.46
2019-02-28T01:09:27.051Z,49.18
2019-02-28T01:10:06.109Z,49.85
2019-02-28T01:10:46.678Z,49.94
2019-02-28T01:11:27.234Z,49.85
2019-02-28T01:12:07.804Z,49.94
2019-02-28T01:12:53.040Z,50.13
2019-02-28T01:13:28.957Z,49.85
2019-02-28T01:14:09.546Z,49.94
2019-02-28T01:14:50.092Z,49.65
2019-02-28T01:15:30.662Z,49.94
2019-02-28T01:16:11.259Z,49.75
2019-02-28T01:16:52.990Z,49.65
2019-02-28T01:17:32.371Z,49.94
2019-02-28T01:18:12.945Z,49.94
2019-02-28T01:18:53.544Z,49.94
2019-02-28T01:19:34.106Z,49.85
2019-02-28T01:20:15.998Z,49.94
2019-02-28T01:20:55.234Z,49.94
2019-02-28T01:21:35.796Z,49.85
2019-02-28T01:22:16.380Z,49.94
2019-02-28T01:22:58.430Z,50.04
2019-02-28T01:23:37.572Z,49.94
2019-02-28T01:24:18.110Z,49.75
2019-02-28T01:24:58.676Z,49.94
2019-02-28T01:25:40.127Z,49.75
2019-02-28T01:26:19.837Z,50.04
2019-02-28T01:27:00.391Z,49.85
2019-02-28T01:27:40.977Z,49.94
2019-02-28T01:28:23.346Z,50.13
2019-02-28T01:29:02.756Z,50.13
2019-02-28T01:29:42.688Z,50.04
2019-02-28T01:30:23.245Z,50.13
2019-02-28T01:31:03.802Z,50.42
2019-02-28T01:31:44.362Z,50.32
2019-02-28T01:32:24.922Z,50.13
2019-02-28T01:33:05.478Z,50.13
2019-02-28T01:33:46.095Z,50.13
2019-02-28T01:34:29.023Z,50.13
2019-02-28T01:35:07.222Z,50.42
2019-02-28T01:35:47.802Z,50.23
2019-02-28T01:36:28.364Z,50.42
2019-02-28T01:37:08.935Z,50.42
2019-02-28T01:37:52.334Z,50.42
2019-02-28T01:38:30.113Z,50.42
2019-02-28T01:39:10.679Z,50.42
2019-02-28T01:39:51.244Z,50.32
2019-02-28T01:40:31.863Z,50.23
2019-02-28T01:41:12.422Z,50.79
2019-02-28T01:41:52.993Z,50.7
2019-02-28T01:42:33.537Z,50.42
2019-02-28T01:43:14.130Z,50.32
2019-02-28T01:43:54.706Z,50.42
2019-02-28T01:44:35.783Z,50.42
2019-02-28T01:45:15.828Z,50.42
2019-02-28T01:45:56.389Z,50.7
2019-02-28T01:46:36.963Z,50.42
2019-02-28T01:47:19.862Z,50.42
2019-02-28T01:47:58.139Z,50.6
2019-02-28T01:48:38.684Z,50.7
2019-02-28T01:49:19.256Z,50.79
2019-02-28T01:49:59.811Z,50.6
2019-02-28T01:50:40.395Z,50.7
2019-02-28T01:51:21.006Z,50.51
2019-02-28T01:52:01.589Z,50.23
2019-02-28T01:52:45.637Z,50.32
2019-02-28T01:53:22.734Z,50.42
2019-02-28T01:54:03.301Z,50.79
2019-02-28T01:54:43.873Z,50.7
2019-02-28T01:55:24.457Z,50.42
2019-02-28T01:56:05.024Z,50.42
2019-02-28T01:56:45.603Z,49.94
2019-02-28T01:57:26.183Z,50.51
2019-02-28T01:58:06.763Z,50.6
2019-02-28T01:58:47.563Z,50.04
2019-02-28T01:59:27.912Z,50.13
2019-02-28T02:00:08.496Z,49.94
2019-02-28T02:00:49.068Z,50.13
2019-02-28T02:01:30.945Z,50.13
2019-02-28T02:02:10.621Z,50.42
2019-02-28T02:02:51.165Z,50.32
2019-02-28T02:03:31.748Z,50.23
2019-02-28T02:04:13.117Z,49.94
2019-02-28T02:04:52.881Z,50.23
2019-02-28T02:05:33.493Z,50.04
2019-02-28T02:06:14.048Z,50.13
2019-02-28T02:06:59.424Z,50.23
2019-02-28T02:07:35.254Z,50.23
2019-02-28T02:08:15.833Z,50.13
2019-02-28T02:08:56.401Z,50.13
2019-02-28T02:09:36.975Z,49.94
2019-02-28T02:10:20.590Z,50.13
2019-02-28T02:10:58.100Z,50.23
2019-02-28T02:11:38.667Z,50.6
2019-02-28T02:12:19.207Z,50.42
2019-02-28T02:13:03.119Z,50.79
2019-02-28T02:13:40.342Z,50.6
2019-02-28T02:14:20.936Z,50.23
2019-02-28T02:15:01.492Z,50.79
2019-02-28T02:15:42.068Z,50.7
2019-02-28T02:16:26.648Z,50.54
2019-02-28T02:17:03.188Z,50.51
2019-02-28T02:17:43.746Z,50.51
2019-02-28T02:18:24.314Z,50.6
2019-02-28T02:19:04.895Z,50.6
2019-02-28T02:19:45.493Z,50.79
2019-02-28T02:20:26.902Z,51.18
2019-02-28T02:21:06.642Z,50.99
2019-02-28T02:21:47.227Z,51.18
2019-02-28T02:22:27.805Z,51.08
2019-02-28T02:23:08.351Z,51.08
2019-02-28T02:23:49.545Z,51.08
2019-02-28T02:24:29.523Z,50.92
2019-02-28T02:25:10.092Z,50.99
2019-02-28T02:25:50.693Z,51.08
2019-02-28T02:26:31.319Z,50.92
2019-02-28T02:27:11.904Z,50.89
2019-02-28T02:27:53.198Z,51.01
2019-02-28T02:28:33.084Z,50.92
2019-02-28T02:29:13.659Z,51.1
2019-02-28T02:29:54.190Z,50.92
2019-02-28T02:30:34.788Z,51.01
2019-02-28T02:31:15.362Z,50.7
2019-02-28T02:31:55.916Z,51.01
2019-02-28T02:32:38.572Z,50.92
2019-02-28T02:33:17.062Z,50.92
2019-02-28T02:33:57.644Z,50.92
2019-02-28T02:34:38.195Z,51.01
2019-02-28T02:35:18.762Z,50.92
2019-02-28T02:35:59.344Z,50.92
2019-02-28T02:36:39.931Z,51.01
2019-02-28T02:37:20.554Z,50.92
2019-02-28T02:38:03.443Z,51.2
2019-02-28T02:38:41.858Z,51.01
2019-02-28T02:39:22.195Z,50.92
2019-02-28T02:40:02.773Z,50.82
2019-02-28T02:40:43.417Z,50.92
2019-02-28T02:41:24.014Z,50.92
2019-02-28T02:42:09.707Z,51.01
2019-02-28T02:42:48.345Z,50.73
2019-02-28T02:43:25.758Z,50.82
2019-02-28T02:44:06.313Z,50.92
2019-02-28T02:44:46.880Z,50.73
2019-02-28T02:45:27.424Z,51.01
2019-02-28T02:46:08.006Z,51.1
2019-02-28T02:46:55.248Z,51.2
2019-02-28T02:47:32.297Z,51.2
2019-02-28T02:48:09.720Z,50.92
2019-02-28T02:48:50.308Z,50.82
2019-02-28T02:49:30.885Z,50.92
2019-02-28T02:50:11.441Z,50.92
2019-02-28T02:50:52.015Z,51.1
2019-02-28T02:51:32.607Z,50.92
2019-02-28T02:52:13.210Z,50.92
2019-02-28T02:52:53.785Z,50.82
2019-02-28T02:53:41.339Z,50.63
2019-02-28T02:54:19.480Z,51.1
2019-02-28T02:54:55.485Z,51.01
2019-02-28T02:55:36.055Z,51.58
2019-02-28T02:56:16.595Z,51.39
2019-02-28T02:56:57.186Z,51.49
2019-02-28T02:57:37.770Z,51.39
2019-02-28T02:58:18.387Z,51.68
2019-02-28T02:59:01.055Z,51.49
2019-02-28T02:59:39.614Z,51.49
2019-02-28T03:00:20.209Z,51.97
2019-02-28T03:01:00.792Z,52.06
2019-02-28T03:01:41.363Z,51.68
2019-02-28T03:02:21.965Z,51.97
2019-02-28T03:03:05.977Z,51.97
2019-02-28T03:03:44.492Z,51.58
2019-02-28T03:04:23.642Z,51.97
2019-02-28T03:05:04.212Z,52.06
2019-02-28T03:05:44.769Z,51.87
2019-02-28T03:06:25.370Z,52.15
2019-02-28T03:07:05.939Z,52.06
2019-02-28T03:07:46.520Z,52.15
2019-02-28T03:08:27.096Z,52.06
2019-02-28T03:09:09.852Z,52.15
2019-02-28T03:09:48.236Z,52.53
2019-02-28T03:10:28.782Z,52.72
2019-02-28T03:11:09.384Z,52.53
2019-02-28T03:11:49.950Z,52.72
2019-02-28T03:12:31.426Z,52.44
2019-02-28T03:13:11.085Z,52.44
2019-02-28T03:13:51.646Z,52.53
2019-02-28T03:14:32.230Z,52.53
2019-02-28T03:15:12.875Z,52.53
2019-02-28T03:15:53.456Z,52.82
2019-02-28T03:16:34.626Z,53.01
2019-02-28T03:17:14.593Z,52.82
2019-02-28T03:17:55.173Z,53.01
2019-02-28T03:18:35.752Z,52.82
2019-02-28T03:19:16.312Z,53.11
2019-02-28T03:19:56.908Z,53.01
2019-02-28T03:20:41.094Z,52.92
2019-02-28T03:21:18.082Z,53.49
2019-02-28T03:21:58.635Z,52.8
2019-02-28T03:22:39.193Z,52.92
2019-02-28T03:23:19.774Z,53.27
2019-02-28T03:24:00.318Z,53.11
2019-02-28T03:24:40.866Z,52.98
2019-02-28T03:25:27.410Z,53.39
2019-02-28T03:26:05.975Z,53.3
2019-02-28T03:26:43.373Z,53.46
2019-02-28T03:27:23.142Z,53.58
2019-02-28T03:28:03.710Z,53.67
2019-02-28T03:28:44.262Z,53.77
2019-02-28T03:29:24.896Z,53.58
2019-02-28T03:30:05.388Z,53.65
2019-02-28T03:30:45.945Z,53.87
2019-02-28T03:31:26.531Z,53.87
2019-02-28T03:32:07.111Z,54.32
2019-02-28T03:32:47.686Z,54.13
2019-02-28T03:33:28.913Z,54.32
2019-02-28T03:34:12.683Z,54.15
2019-02-28T03:34:57.745Z,54.06
2019-02-28T03:35:39.680Z,54.15
2019-02-28T03:36:15.573Z,54.15
2019-02-28T03:36:56.854Z,54.06
2019-02-28T03:37:34.345Z,54.5
2019-02-28T03:38:13.199Z,54.63
2019-02-28T03:38:53.776Z,54.35
2019-02-28T03:39:34.355Z,54.35
2019-02-28T03:40:14.911Z,54.44
2019-02-28T03:40:55.497Z,54.53
2019-02-28T03:41:36.090Z,54.35
2019-02-28T03:42:16.652Z,54.35
2019-02-28T03:42:57.226Z,54.72
2019-02-28T03:43:42.417Z,54.72
2019-02-28T03:44:21.229Z,55.2
2019-02-28T03:44:58.931Z,55.1
2019-02-28T03:45:39.532Z,54.72
2019-02-28T03:46:20.091Z,54.82
2019-02-28T03:47:00.671Z,55.1
2019-02-28T03:47:41.262Z,55.01
2019-02-28T03:48:21.827Z,55.39
2019-02-28T03:49:02.436Z,55.39
2019-02-28T03:49:48.369Z,55.49
2019-02-28T03:50:23.570Z,55.58
2019-02-28T03:51:04.168Z,55.68
2019-02-28T03:51:44.768Z,55.68
2019-02-28T03:52:25.335Z,55.49
2019-02-28T03:53:05.893Z,55.29
2019-02-28T03:53:46.450Z,56.24
2019-02-28T03:54:28.743Z,56.03
2019-02-28T03:55:07.576Z,55.87
2019-02-28T03:55:48.182Z,56.15
2019-02-28T03:56:28.788Z,56.15
2019-02-28T03:57:09.362Z,55.83
2019-02-28T03:57:49.930Z,56.05
2019-02-28T03:58:30.581Z,56.34
2019-02-28T03:59:18.063Z,56.72
2019-02-28T03:59:56.624Z,56.6
2019-02-28T04:00:33.831Z,56.72
2019-02-28T04:01:12.941Z,56.7
2019-02-28T04:01:53.983Z,56.72
2019-02-28T04:02:34.550Z,56.88
2019-02-28T04:03:15.144Z,56.6
2019-02-28T04:03:55.686Z,56.53
2019-02-28T04:04:36.313Z,56.51
2019-02-28T04:05:16.904Z,56.53
2019-02-28T04:06:02.852Z,56.63
2019-02-28T04:06:40.621Z,56.82
2019-02-28T04:07:18.615Z,56.63
2019-02-28T04:07:59.194Z,56.82
2019-02-28T04:08:39.800Z,56.92
2019-02-28T04:09:20.369Z,56.63
2019-02-28T04:10:00.929Z,56.98
2019-02-28T04:10:41.511Z,56.82
2019-02-28T04:11:22.090Z,56.92
2019-02-28T04:12:06.961Z,56.7
2019-02-28T04:12:45.513Z,57.2
2019-02-28T04:13:23.805Z,57.2
2019-02-28T04:14:04.393Z,57.01
2019-02-28T04:14:45.015Z,57.39
2019-02-28T04:15:25.609Z,56.98
2019-02-28T04:16:08.888Z,57.48
2019-02-28T04:16:52.392Z,57.01
2019-02-28T04:17:30.385Z,57.36
2019-02-28T04:18:08.586Z,57.2
2019-02-28T04:18:48.559Z,57.29
2019-02-28T04:19:29.153Z,57.48
2019-02-28T04:20:09.693Z,57.36
2019-02-28T04:20:50.276Z,57.36
2019-02-28T04:21:30.839Z,57.58
2019-02-28T04:22:11.420Z,57.26
2019-02-28T04:22:58.341Z,57.45
2019-02-28T04:23:35.913Z,57.65
2019-02-28T04:24:14.065Z,57.45
2019-02-28T04:24:53.744Z,57.55
2019-02-28T04:25:34.303Z,57.39
2019-02-28T04:26:14.912Z,57.39
2019-02-28T04:26:55.418Z,57.96
2019-02-28T04:27:40.144Z,57.77
2019-02-28T04:28:18.470Z,57.74
2019-02-28T04:28:57.141Z,57.87
2019-02-28T04:29:37.728Z,58.03
2019-02-28T04:30:18.329Z,58.12
2019-02-28T04:30:58.890Z,58.03
2019-02-28T04:31:39.480Z,57.65
2019-02-28T04:32:26.284Z,58.31
2019-02-28T04:33:01.378Z,58.12
2019-02-28T04:33:41.275Z,57.84
2019-02-28T04:34:21.845Z,57.93
2019-02-28T04:35:02.446Z,58.12
2019-02-28T04:35:43.011Z,57.93
2019-02-28T04:36:23.585Z,58.4
2019-02-28T04:37:04.167Z,58.5
2019-02-28T04:37:46.980Z,58.5
2019-02-28T04:38:25.315Z,58.4
2019-02-28T04:39:05.986Z,58.59
2019-02-28T04:39:46.507Z,58.59
2019-02-28T04:40:27.688Z,58.4
2019-02-28T04:41:07.646Z,58.31
2019-02-28T04:41:48.218Z,58.5
2019-02-28T04:42:28.781Z,58.5
2019-02-28T04:43:10.046Z,58.5
2019-02-28T04:43:49.907Z,58.79
2019-02-28T04:44:30.550Z,59.07
2019-02-28T04:45:11.176Z,58.88
2019-02-28T04:45:51.807Z,58.88
2019-02-28T04:46:32.621Z,58.88
2019-02-28T04:47:12.948Z,58.69
2019-02-28T04:47:53.537Z,59.17
2019-02-28T04:48:34.083Z,59.17
2019-02-28T04:49:14.658Z,59.17
2019-02-28T04:49:56.832Z,58.98
2019-02-28T04:50:35.796Z,59.27
2019-02-28T04:51:16.353Z,59.07
2019-02-28T04:51:56.917Z,59.27
2019-02-28T04:52:37.473Z,59.36
2019-02-28T04:53:18.837Z,59.07
2019-02-28T04:53:58.612Z,59.45
2019-02-28T04:54:39.172Z,59.74
2019-02-28T04:55:19.729Z,59.55
2019-02-28T04:56:00.286Z,60.02
2019-02-28T04:56:42.218Z,59.93
2019-02-28T04:57:21.606Z,59.74
2019-02-28T04:58:01.968Z,60.12
2019-02-28T04:58:42.576Z,60.21
2019-02-28T04:59:23.158Z,60.21
2019-02-28T05:00:05.787Z,60.41
2019-02-28T05:00:44.338Z,59.83
2019-02-28T05:01:24.911Z,60.21
2019-02-28T05:02:05.500Z,60.21
2019-02-28T05:02:46.058Z,60.41
2019-02-28T05:03:28.880Z,60.41
2019-02-28T05:04:07.250Z,60.5
2019-02-28T05:04:47.830Z,60.31
2019-02-28T05:05:28.402Z,60.31
2019-02-28T05:06:08.976Z,60.02
2019-02-28T05:06:52.116Z,60.69
2019-02-28T05:07:30.422Z,60.6
2019-02-28T05:08:10.681Z,60.88
2019-02-28T05:08:51.252Z,60.6
2019-02-28T05:09:31.864Z,60.69
2019-02-28T05:10:12.420Z,60.69
2019-02-28T05:10:55.558Z,60.69
2019-02-28T05:11:33.699Z,60.88
2019-02-28T05:12:14.120Z,60.88
2019-02-28T05:12:54.690Z,60.6
2019-02-28T05:13:35.280Z,60.78
2019-02-28T05:14:15.820Z,60.69
2019-02-28T05:14:58.123Z,61.07
2019-02-28T05:15:38.193Z,60.78
2019-02-28T05:16:17.580Z,60.97
2019-02-28T05:16:58.161Z,60.78
2019-02-28T05:17:38.781Z,60.78
2019-02-28T05:18:19.354Z,60.88
2019-02-28T05:19:01.520Z,60.6
2019-02-28T05:19:40.545Z,60.69
2019-02-28T05:20:21.162Z,61.26
2019-02-28T05:21:01.748Z,61.45
2019-02-28T05:21:42.305Z,61.35
2019-02-28T05:22:24.375Z,61.35
2019-02-28T05:23:03.478Z,61.93
2019-02-28T05:23:44.084Z,61.93
2019-02-28T05:24:24.670Z,61.83
2019-02-28T05:25:05.217Z,61.74
2019-02-28T05:25:45.800Z,61.35
2019-02-28T05:26:27.000Z,61.26
2019-02-28T05:27:06.959Z,61.26
2019-02-28T05:27:47.653Z,61.64
2019-02-28T05:28:28.219Z,61.64
2019-02-28T05:29:11.826Z,61.64
2019-02-28T05:29:49.379Z,61.35
2019-02-28T05:30:29.954Z,61.35
2019-02-28T05:31:10.593Z,61.64
2019-02-28T05:31:51.172Z,61.64
2019-02-28T05:32:32.085Z,61.64
2019-02-28T05:33:12.368Z,61.93
2019-02-28T05:33:52.969Z,61.93
2019-02-28T05:34:33.532Z,61.83
2019-02-28T05:35:14.116Z,61.83
2019-02-28T05:35:57.125Z,61.64
2019-02-28T05:36:37.795Z,61.93
2019-02-28T05:37:15.943Z,62.37
2019-02-28T05:37:56.599Z,62.3
2019-02-28T05:38:37.368Z,62.12
2019-02-28T05:39:18.166Z,62.12
2019-02-28T05:39:59.046Z,62.12
2019-02-28T05:40:41.280Z,62.12
2019-02-28T05:41:20.640Z,62.21
2019-02-28T05:42:01.499Z,62.21
2019-02-28T05:42:42.353Z,61.93
2019-02-28T05:43:23.100Z,62.49
2019-02-28T05:44:06.123Z,62.4
2019-02-28T05:44:44.648Z,62.49
2019-02-28T05:45:26.085Z,62.02
2019-02-28T05:46:06.868Z,62.65
2019-02-28T05:46:47.383Z,62.21
2019-02-28T05:47:29.333Z,62.49
2019-02-28T05:48:09.078Z,62.3
2019-02-28T05:48:49.852Z,62.21
2019-02-28T05:49:30.498Z,62.78
2019-02-28T05:50:15.072Z,63.07
2019-02-28T05:50:53.189Z,62.78
2019-02-28T05:51:32.240Z,62.78
2019-02-28T05:52:12.809Z,62.69
2019-02-28T05:52:53.466Z,62.56
2019-02-28T05:53:34.327Z,62.4
2019-02-28T05:54:16.843Z,63.04
2019-02-28T05:54:57.684Z,63.04
2019-02-28T05:55:36.717Z,62.88
2019-02-28T05:56:17.337Z,62.97
2019-02-28T05:56:58.139Z,62.94
2019-02-28T05:57:39.280Z,62.97
2019-02-28T05:58:20.886Z,62.97
2019-02-28T05:59:00.318Z,62.69
2019-02-28T05:59:41.038Z,63.13
2019-02-28T06:00:21.745Z,63.17
2019-02-28T06:01:02.492Z,63.54
2019-02-28T06:01:46.759Z,63.54
2019-02-28T06:02:25.638Z,63.13
2019-02-28T06:03:05.110Z,63.35
2019-02-28T06:03:45.692Z,63.26
2019-02-28T06:04:26.277Z,63.35
2019-02-28T06:05:08.353Z,63.64
2019-02-28T06:05:47.424Z,63.54
2019-02-28T06:06:27.975Z,63.83
2019-02-28T06:07:09.412Z,63.79
2019-02-28T06:07:49.111Z,63.89
2019-02-28T06:08:29.727Z,63.89
2019-02-28T06:09:13.652Z,64.11
2019-02-28T06:09:50.919Z,63.79
2019-02-28T06:10:31.823Z,63.92
2019-02-28T06:11:12.659Z,63.73
2019-02-28T06:11:53.570Z,63.73
2019-02-28T06:12:34.476Z,64.02
2019-02-28T06:13:18.223Z,63.73
2019-02-28T06:13:56.308Z,63.89
2019-02-28T06:14:37.391Z,64.02
2019-02-28T06:15:18.274Z,63.79
2019-02-28T06:15:59.096Z,63.73
2019-02-28T06:16:39.915Z,63.79
2019-02-28T06:17:21.851Z,63.92
2019-02-28T06:18:01.665Z,63.42
2019-02-28T06:18:42.435Z,64.27
2019-02-28T06:19:23.220Z,64.59
2019-02-28T06:20:04.107Z,64.59
2019-02-28T06:20:45.068Z,63.92
2019-02-28T06:21:25.722Z,64.59
2019-02-28T06:22:06.488Z,64.31
2019-02-28T06:22:47.339Z,64.37
2019-02-28T06:23:27.917Z,64.11
2019-02-28T06:24:08.489Z,64.59
2019-02-28T06:24:49.209Z,63.83
2019-02-28T06:25:29.810Z,64.31
2019-02-28T06:26:10.400Z,64.21
2019-02-28T06:26:51.019Z,64.21
2019-02-28T06:27:40.788Z,64.4
2019-02-28T06:28:12.251Z,64.4
2019-02-28T06:28:53.067Z,64.59
2019-02-28T06:29:36.683Z,64.31
2019-02-28T06:30:14.344Z,64.4
2019-02-28T06:30:54.956Z,64.97
2019-02-28T06:31:36.123Z,67.73
2019-02-28T06:32:16.850Z,70.2
2019-02-28T06:32:58.963Z,70.77
2019-02-28T06:33:38.085Z,71.09
2019-02-28T06:34:18.692Z,71.86
2019-02-28T06:34:59.871Z,71.38
2019-02-28T06:35:39.871Z,69.85
2019-02-28T06:36:20.453Z,67.19
2019-02-28T06:37:03.568Z,67.29
2019-02-28T06:37:41.661Z,67.99
2019-02-28T06:38:24.176Z,68.37
2019-02-28T06:39:07.647Z,67.89
2019-02-28T06:39:49.531Z,65.8
2019-02-28T06:40:32.932Z,65.13
2019-02-28T06:41:10.716Z,65.23
2019-02-28T06:41:51.308Z,65.61
2019-02-28T06:42:31.889Z,63.99
2019-02-28T06:43:14.076Z,63.99
2019-02-28T06:43:53.891Z,64.84
2019-02-28T06:44:33.908Z,63.6
2019-02-28T06:45:14.518Z,61.93
2019-02-28T06:45:55.093Z,61.04
2019-02-28T06:46:35.693Z,60.85
2019-02-28T06:47:16.319Z,61.04
2019-02-28T06:47:56.906Z,61.32
2019-02-28T06:48:37.510Z,61.22
2019-02-28T06:49:18.140Z,61.99
2019-02-28T06:49:58.725Z,61.9
2019-02-28T06:50:39.308Z,61.9
2019-02-28T06:51:19.934Z,61.96
2019-02-28T06:52:00.527Z,62.15
2019-02-28T06:52:41.104Z,62.24
2019-02-28T06:53:21.685Z,62.05
2019-02-28T06:54:04.322Z,62.53
2019-02-28T06:54:42.868Z,62.43
2019-02-28T06:55:23.432Z,63.1
2019-02-28T06:56:03.991Z,62.62
2019-02-28T06:56:44.571Z,62.72
2019-02-28T06:57:26.733Z,62.81
2019-02-28T06:58:05.748Z,63.39
2019-02-28T06:58:46.305Z,63.29
2019-02-28T06:59:26.904Z,63.57
2019-02-28T07:00:10.336Z,63.57
2019-02-28T07:00:48.424Z,63.76
2019-02-28T07:01:29.567Z,63.76
2019-02-28T07:02:09.321Z,64.05
2019-02-28T07:02:50.187Z,63.96
2019-02-28T07:03:30.517Z,63.76
2019-02-28T07:04:11.420Z,63.76
2019-02-28T07:04:51.757Z,63.92
2019-02-28T07:05:32.365Z,64.34
2019-02-28T07:06:12.918Z,64.15
2019-02-28T07:06:53.522Z,64.43
2019-02-28T07:07:34.096Z,64.24
2019-02-28T07:08:14.708Z,64.34
2019-02-28T07:08:55.257Z,64.31
2019-02-28T07:09:36.366Z,64.31
2019-02-28T07:10:16.416Z,64.31
2019-02-28T07:10:56.958Z,64.34
2019-02-28T07:11:37.553Z,64.31
2019-02-28T07:12:18.155Z,65.06
2019-02-28T07:13:03.947Z,64.97
2019-02-28T07:13:40.210Z,65.06
2019-02-28T07:14:19.946Z,65.25
2019-02-28T07:15:00.608Z,65.06
2019-02-28T07:15:41.173Z,65.35
2019-02-28T07:16:21.736Z,65.64
2019-02-28T07:17:02.308Z,65.35
2019-02-28T07:17:46.257Z,66.02
2019-02-28T07:18:23.457Z,65.83
2019-02-28T07:19:04.014Z,65.45
2019-02-28T07:19:44.578Z,65.83
2019-02-28T07:20:25.164Z,65.54
2019-02-28T07:21:07.775Z,66.02
2019-02-28T07:21:46.304Z,65.92
2019-02-28T07:22:26.888Z,66.39
2019-02-28T07:23:07.454Z,66.2
2019-02-28T07:23:48.007Z,66.39
2019-02-28T07:24:28.599Z,66.39
2019-02-28T07:25:09.383Z,66.59
2019-02-28T07:25:49.773Z,66.78
2019-02-28T07:26:30.325Z,66.59
2019-02-28T07:27:10.885Z,66.49
2019-02-28T07:27:51.432Z,66.39
2019-02-28T07:28:36.054Z,66.68
2019-02-28T07:29:12.525Z,67.07
2019-02-28T07:29:53.097Z,67.07
2019-02-28T07:30:33.657Z,66.97
2019-02-28T07:31:14.237Z,66.87
2019-02-28T07:31:59.757Z,66.87
2019-02-28T07:32:35.387Z,66.78
2019-02-28T07:33:15.938Z,66.59
2019-02-28T07:33:56.570Z,66.78
2019-02-28T07:34:37.143Z,66.68
2019-02-28T07:35:17.702Z,66.68
2019-02-28T07:35:58.254Z,66.49
2019-02-28T07:36:41.443Z,66.68
2019-02-28T07:37:19.661Z,66.49
2019-02-28T07:38:00.103Z,66.59
2019-02-28T07:38:40.699Z,66.59
2019-02-28T07:39:21.292Z,66.87
2019-02-28T07:40:01.875Z,66.3
2019-02-28T07:40:42.417Z,67.07
2019-02-28T07:41:26.143Z,66.87
2019-02-28T07:42:03.554Z,66.97
2019-02-28T07:42:44.113Z,67.07
2019-02-28T07:43:24.694Z,67.25
2019-02-28T07:44:05.276Z,66.59
2019-02-28T07:44:45.861Z,66.39
2019-02-28T07:45:26.405Z,66.59
2019-02-28T07:46:07.634Z,66.87
2019-02-28T07:46:47.562Z,66.87
2019-02-28T07:47:28.174Z,66.87
2019-02-28T07:48:08.671Z,66.87
2019-02-28T07:48:49.269Z,66.68
2019-02-28T07:49:35.517Z,66.87
2019-02-28T07:50:10.848Z,67.16
2019-02-28T07:50:50.977Z,66.87
2019-02-28T07:51:31.530Z,66.91
2019-02-28T07:52:12.105Z,67.07
2019-02-28T07:52:53.223Z,66.59
2019-02-28T07:53:33.325Z,66.62
2019-02-28T07:54:15.795Z,66.62
2019-02-28T07:54:55.733Z,67
2019-02-28T07:55:35.033Z,66.91
2019-02-28T07:56:15.622Z,67
2019-02-28T07:56:56.180Z,67.03
2019-02-28T07:57:36.750Z,65.8
2019-02-28T07:58:17.339Z,64.5
2019-02-28T07:58:57.917Z,64.02
2019-02-28T07:59:42.172Z,62.88
2019-02-28T08:00:19.176Z,62.72
2019-02-28T08:00:59.742Z,62.05
2019-02-28T08:01:40.338Z,60.91
2019-02-28T08:02:21.532Z,59.86
2019-02-28T08:03:02.114Z,59.12
2019-02-28T08:03:43.612Z,58.84
2019-02-28T08:04:23.230Z,58.07
2019-02-28T08:05:03.837Z,57.89
2019-02-28T08:05:44.470Z,58.11
2019-02-28T08:06:24.977Z,58.11
2019-02-28T08:07:05.560Z,58.11
2019-02-28T08:07:50.161Z,57.37
2019-02-28T08:08:27.034Z,56.23
2019-02-28T08:09:07.327Z,56.04
2019-02-28T08:09:47.887Z,54.99
2019-02-28T08:10:28.499Z,53.86
2019-02-28T08:11:09.089Z,53.29
2019-02-28T08:11:51.549Z,53.1
2019-02-28T08:12:30.696Z,53.49
2019-02-28T08:13:10.821Z,53.2
2019-02-28T08:13:51.399Z,52.91
2019-02-28T08:14:31.978Z,52.72
2019-02-28T08:15:13.670Z,53.1
2019-02-28T08:15:53.297Z,53.1
2019-02-28T08:16:34.678Z,53.1
2019-02-28T08:17:14.426Z,53.1
2019-02-28T08:17:54.983Z,53.03
2019-02-28T08:18:35.568Z,52.36
2019-02-28T08:19:16.142Z,51.98
2019-02-28T08:19:58.703Z,51.24
2019-02-28T08:20:37.321Z,50.95
2019-02-28T08:21:17.878Z,50.76
2019-02-28T08:21:58.453Z,50.38
2019-02-28T08:22:39.031Z,50.29
2019-02-28T08:23:19.614Z,50.09
2019-02-28T08:24:02.436Z,50.48
2019-02-28T08:24:40.773Z,50.29
2019-02-28T08:25:21.371Z,49.23
2019-02-28T08:26:01.903Z,49.43
2019-02-28T08:26:43.713Z,48.68
2019-02-28T08:27:25.341Z,48.97
2019-02-28T08:28:03.626Z,49.64
2019-02-28T08:28:44.196Z,49.07
2019-02-28T08:29:24.782Z,48.39
2019-02-28T08:30:05.362Z,48.13
2019-02-28T08:30:47.313Z,47.47
2019-02-28T08:31:28.286Z,47.56
2019-02-28T08:32:08.175Z,47.56
2019-02-28T08:32:47.682Z,48.04
2019-02-28T08:33:28.278Z,47.56
2019-02-28T08:34:08.952Z,47.39
2019-02-28T08:34:49.545Z,46.7
2019-02-28T08:35:33.924Z,46.44
2019-02-28T08:36:12.484Z,46.34
2019-02-28T08:36:51.331Z,46.72
2019-02-28T08:37:31.951Z,46.44
2019-02-28T08:38:12.567Z,45.86
2019-02-28T08:38:53.163Z,45.76
2019-02-28T08:39:33.743Z,46.22
2019-02-28T08:40:15.579Z,46.25
2019-02-28T08:40:54.830Z,46.44
2019-02-28T08:41:35.487Z,46.15
2019-02-28T08:42:16.050Z,46.53
2019-02-28T08:42:56.672Z,46.53
2019-02-28T08:43:37.252Z,46.34
2019-02-28T08:44:22.455Z,46.62
2019-02-28T08:44:59.163Z,46.91